ADDS METAR Data INFO
IDs: Format: Raw Decoded Include TAF

Data at: 0922 UTC 13 Dec 2017

KGBD 130856Z AUTO 26008KT 10SM CLR 05/M08 A2987 RMK AO2 SLP116 T00501078 56015
KGBD 130756Z AUTO 24007KT 10SM CLR 04/M08 A2987 RMK AO2 SLP118 T00391083
KGBD 130656Z AUTO 25009KT 10SM CLR 03/M09 A2989 RMK AO2 SLP127 T00281089
KGBD 130556Z AUTO 23008KT 10SM CLR 02/M09 A2992 RMK AO2 SLP137 T00221089 10067 20006 401441061 58026 FZRANO
KGBD 130456Z AUTO 22007KT 10SM CLR 02/M09 A2995 RMK AO2 SLP153 T00171089 FZRANO
KGBD 130356Z AUTO 22006KT 10SM CLR 02/M09 A2998 RMK AO2 SLP165 T00171089 FZRANO
KGBD 130256Z AUTO 22008KT 10SM CLR 04/M08 A3000 RMK AO2 SLP172 T00441083 58025
KGBD 130156Z AUTO 21008KT 10SM CLR 03/M08 A3003 RMK AO2 SLP187 T00331083
KGBD 130056Z AUTO 21007KT 10SM CLR 04/M09 A3005 RMK AO2 SLP194 T00391089
KGBD 122356Z AUTO 19007KT 10SM CLR 06/M08 A3008 RMK AO2 SLP200 T00561083 10144 20056 58028
KGBD 122256Z AUTO 22007KT 10SM CLR 12/M08 A3011 RMK AO2 SLP206 T01171078
KGBD 122156Z AUTO 25009KT 10SM CLR 14/M07 A3014 RMK AO2 SLP214 T01441072
KGBD 122056Z AUTO 24009KT 10SM CLR 13/M06 A3016 RMK AO2 SLP222 T01331061 56046
KGBD 121956Z AUTO 25007KT 10SM CLR 12/M06 A3020 RMK AO2 SLP236 T01221056
KGBD 121856Z AUTO 25013KT 10SM CLR 10/M04 A3025 RMK AO2 SLP252 T01001039
KGBD 121756Z AUTO 26010KT 10SM CLR 08/M03 A3031 RMK AO2 PRESFR SLP275 T00831028 10083 21061 58025
KGBD 121656Z AUTO 27006KT 10SM CLR 05/M03 A3036 RMK AO2 SLP294 T00501028
KGBD 121556Z AUTO 27007KT 10SM CLR 02/M04 A3038 RMK AO2 SLP301 T00171044 FZRANO
KGBD 121456Z AUTO 26004KT 10SM CLR M02/M05 A3038 RMK AO2 SLP305 T10221050 58005 FZRANO
KGBD 121356Z AUTO 26004KT 10SM CLR M06/M08 A3039 RMK AO2 SLP309 T10611078 FZRANO
KGBD 121256Z AUTO 28009KT 10SM CLR M05/M07 A3040 RMK AO2 SLP308 T10501067 FZRANO
KGBD 121156Z AUTO 27007KT 10SM CLR M05/M07 A3040 RMK AO2 SLP308 T10501067 11006 21056 58004 FZRANO
KGBD 121056Z AUTO 27008KT 10SM CLR M06/M07 A3041 RMK AO2 SLP309 T10561072 FZRANO
KGBD 120956Z AUTO 28005KT 10SM CLR M04/M06 A3042 RMK AO2 SLP309 T10391056 FZRANO
KGBD 120856Z AUTO 33008KT 10SM CLR M03/M05 A3041 RMK AO2 SLP306 T10281050 50003 FZRANO
KGBD 120756Z AUTO 32009KT 10SM CLR M02/M04 A3041 RMK AO2 SLP306 T10171044 FZRANO
KGBD 120656Z AUTO 31006KT 10SM CLR M01/M04 A3041 RMK AO2 SLP302 T10061039 FZRANO TSNO
KGBD 120556Z AUTO 29005KT 10SM CLR M03/M06 A3040 RMK AO2 SLP303 T10331056 10089 21033 401781033 51017 FZRANO
KGBD 120456Z AUTO 33006KT 10SM CLR 01/M04 A3040 RMK AO2 SLP299 T00061039 FZRANO
KGBD 120356Z AUTO 34009KT 10SM CLR 03/M03 A3038 RMK AO2 SLP294 T00281033
KGBD 120256Z AUTO 36014KT 10SM CLR 04/M03 A3035 RMK AO2 PK WND 36026/0218 SLP286 T00441028 51037
KGBD 120156Z AUTO 36012KT 10SM CLR 06/M03 A3033 RMK AO2 PK WND 36028/0139 SLP279 T00611033
KGBD 120056Z AUTO 01013KT 10SM CLR 08/M04 A3028 RMK AO2 SLP262 T00831039
KGBD 112356Z AUTO 34013G19KT 10SM CLR 09/M06 A3024 RMK AO2 PK WND 35027/2303 SLP248 T00891056 10178 20089 53030
KGBD 112256Z AUTO 35023G28KT 10SM CLR 11/M06 A3020 RMK AO2 PK WND 34029/2201 SLP234 T01111061
KGBD 112156Z AUTO 33021G24KT 10SM CLR 14/M10 A3017 RMK AO2 PK WND 34031/2122 SLP219 T01441100